createdAt,value
2017-09-13T00:00:08.823Z,94232.19
2017-09-13T00:02:37.351Z,94237.16
2017-09-13T00:05:05.158Z,94234.76
2017-09-13T00:07:33.125Z,94235.50
2017-09-13T00:10:00.830Z,94239.28
2017-09-13T00:12:28.621Z,94238.48
2017-09-13T00:14:56.458Z,94254.96
2017-09-13T00:17:24.185Z,94256.77
2017-09-13T00:19:51.952Z,94259.14
2017-09-13T00:22:19.734Z,94262.25
2017-09-13T00:24:47.439Z,94267.22
2017-09-13T00:27:15.216Z,94272.09
2017-09-13T00:29:42.961Z,94279.20
2017-09-13T00:32:10.714Z,94278.88
2017-09-13T00:34:38.438Z,94286.47
2017-09-13T00:37:06.197Z,94283.90
2017-09-13T00:39:33.944Z,94285.78
2017-09-13T00:42:01.704Z,94283.27
2017-09-13T00:44:29.490Z,94281.47
2017-09-13T00:46:57.457Z,94284.70
2017-09-13T00:49:25.193Z,94286.67
2017-09-13T00:51:52.992Z,94282.47
2017-09-13T00:54:20.916Z,94277.42
2017-09-13T00:56:48.618Z,94283.33
2017-09-13T00:59:16.382Z,94280.17
2017-09-13T01:01:44.417Z,94284.60
2017-09-13T01:04:12.141Z,94292.47
2017-09-13T01:06:39.850Z,94284.36
2017-09-13T01:09:07.966Z,94282.99
2017-09-13T01:11:35.660Z,94280.98
2017-09-13T01:14:05.440Z,94275.77
2017-09-13T01:16:33.700Z,94279.84
2017-09-13T01:19:01.443Z,94275.14
2017-09-13T01:21:31.154Z,94275.95
2017-09-13T01:24:00.696Z,94274.14
2017-09-13T01:26:28.969Z,94276.52
2017-09-13T01:28:57.794Z,94275.44
2017-09-13T01:31:25.599Z,94284.69
2017-09-13T01:33:53.377Z,94275.03
2017-09-13T01:36:21.367Z,94274.23
2017-09-13T01:38:49.085Z,94274.98
2017-09-13T01:41:16.849Z,94275.73
2017-09-13T01:43:45.433Z,94280.67
2017-09-13T01:46:13.763Z,94279.53
2017-09-13T01:48:41.532Z,94280.00
2017-09-13T01:51:09.247Z,94280.42
2017-09-13T01:53:36.949Z,94283.24
2017-09-13T01:56:04.685Z,94290.44
2017-09-13T01:58:32.922Z,94278.13
2017-09-13T02:01:00.642Z,94285.48
2017-09-13T02:03:28.515Z,94281.03
2017-09-13T02:05:57.198Z,94286.20
2017-09-13T02:08:24.912Z,94285.94
2017-09-13T02:10:52.764Z,94287.43
2017-09-13T02:13:20.449Z,94280.51
2017-09-13T02:15:49.541Z,94278.16
2017-09-13T02:18:17.302Z,94282.05
2017-09-13T02:20:46.775Z,94286.94
2017-09-13T02:23:14.558Z,94283.58
2017-09-13T02:25:42.357Z,94275.50
2017-09-13T02:28:10.135Z,94277.67
2017-09-13T02:30:37.933Z,94283.02
2017-09-13T02:33:05.647Z,94265.28
2017-09-13T02:35:33.431Z,94266.20
2017-09-13T02:38:01.175Z,94264.88
2017-09-13T02:40:28.981Z,94274.38
2017-09-13T02:42:56.697Z,94278.27
2017-09-13T02:45:24.522Z,94273.08
2017-09-13T02:47:52.223Z,94269.41
2017-09-13T02:50:19.993Z,94267.42
2017-09-13T02:52:47.690Z,94271.38
2017-09-13T02:55:15.422Z,94271.52
2017-09-13T02:57:43.227Z,94270.89
2017-09-13T03:00:11.049Z,94265.92
2017-09-13T03:02:38.815Z,94271.50
2017-09-13T03:05:06.530Z,94262.02
2017-09-13T03:07:34.369Z,94260.94
2017-09-13T03:10:02.083Z,94260.73
2017-09-13T03:12:29.920Z,94260.73
2017-09-13T03:14:58.205Z,94263.52
2017-09-13T03:17:25.933Z,94261.63
2017-09-13T03:19:53.630Z,94256.45
2017-09-13T03:22:21.400Z,94257.63
2017-09-13T03:24:49.521Z,94253.55
2017-09-13T03:27:17.275Z,94253.53
2017-09-13T03:29:45.049Z,94252.98
2017-09-13T03:32:12.793Z,94249.73
2017-09-13T03:34:40.550Z,94255.56
2017-09-13T03:37:08.268Z,94254.11
2017-09-13T03:39:36.052Z,94256.52
2017-09-13T03:42:04.633Z,94252.33
2017-09-13T03:44:32.376Z,94255.63
2017-09-13T03:47:00.142Z,94262.11
2017-09-13T03:49:28.026Z,94255.19
2017-09-13T03:51:55.754Z,94250.87
2017-09-13T03:54:23.481Z,94244.84
2017-09-13T03:56:51.231Z,94244.50
2017-09-13T03:59:20.290Z,94248.83
2017-09-13T04:01:48.121Z,94242.86
2017-09-13T04:04:15.846Z,94243.97
2017-09-13T04:06:43.632Z,94242.31
2017-09-13T04:09:12.041Z,94246.20
2017-09-13T04:11:39.794Z,94254.56
2017-09-13T04:14:07.555Z,94255.62
2017-09-13T04:16:35.297Z,94249.94
2017-09-13T04:19:03.256Z,94245.03
2017-09-13T04:21:31.590Z,94246.23
2017-09-13T04:23:59.528Z,94252.91
2017-09-13T04:26:28.383Z,94258.20
2017-09-13T04:28:56.128Z,94257.05
2017-09-13T04:31:23.864Z,94264.68
2017-09-13T04:33:51.613Z,94259.58
2017-09-13T04:36:19.378Z,94262.16
2017-09-13T04:38:47.257Z,94253.80
2017-09-13T04:41:15.029Z,94246.87
2017-09-13T04:43:42.824Z,94250.27
2017-09-13T04:46:10.637Z,94255.94
2017-09-13T04:48:39.380Z,94261.91
2017-09-13T04:51:07.162Z,94253.22
2017-09-13T04:53:34.875Z,94249.89
2017-09-13T04:56:02.666Z,94244.80
2017-09-13T04:58:30.412Z,94258.53
2017-09-13T05:00:58.139Z,94250.66
2017-09-13T05:03:25.845Z,94245.17
2017-09-13T05:05:53.620Z,94241.38
2017-09-13T05:08:21.313Z,94243.19
2017-09-13T05:10:49.040Z,94241.70
2017-09-13T05:13:16.954Z,94244.18
2017-09-13T05:15:44.858Z,94238.59
2017-09-13T05:18:12.551Z,94251.77
2017-09-13T05:20:40.296Z,94254.48
2017-09-13T05:23:07.990Z,94252.56
2017-09-13T05:25:35.692Z,94247.87
2017-09-13T05:28:03.486Z,94246.64
2017-09-13T05:30:31.196Z,94239.22
2017-09-13T05:32:58.902Z,94235.97
2017-09-13T05:35:26.680Z,94232.41
2017-09-13T05:37:54.386Z,94229.73
2017-09-13T05:40:22.122Z,94228.99
2017-09-13T05:42:49.851Z,94230.31
2017-09-13T05:45:17.545Z,94225.80
2017-09-13T05:47:45.320Z,94225.92
2017-09-13T05:50:13.028Z,94233.59
2017-09-13T05:52:41.518Z,94229.59
2017-09-13T05:55:09.296Z,94234.64
2017-09-13T05:57:37.021Z,94238.55
2017-09-13T06:00:04.787Z,94224.51
2017-09-13T06:02:32.633Z,94223.83
2017-09-13T06:05:00.396Z,94219.66
2017-09-13T06:07:28.097Z,94222.09
2017-09-13T06:09:55.902Z,94219.31
2017-09-13T06:12:23.622Z,94215.70
2017-09-13T06:14:51.393Z,94228.91
2017-09-13T06:17:19.734Z,94228.34
2017-09-13T06:19:47.445Z,94223.47
2017-09-13T06:22:15.327Z,94222.77
2017-09-13T06:24:43.091Z,94225.11
2017-09-13T06:27:10.815Z,94221.33
2017-09-13T06:29:38.699Z,94225.76
2017-09-13T06:32:06.448Z,94224.67
2017-09-13T06:34:34.245Z,94226.67
2017-09-13T06:37:02.066Z,94224.69
2017-09-13T06:39:29.874Z,94230.55
2017-09-13T06:41:57.792Z,94231.48
2017-09-13T06:44:25.618Z,94232.09
2017-09-13T06:46:53.338Z,94228.56
2017-09-13T06:49:21.226Z,94229.94
2017-09-13T06:51:48.946Z,94229.32
2017-09-13T06:54:16.741Z,94226.91
2017-09-13T06:56:44.520Z,94227.63
2017-09-13T06:59:12.225Z,94225.17
2017-09-13T07:01:40.012Z,94223.20
2017-09-13T07:04:07.825Z,94226.88
2017-09-13T07:06:35.555Z,94215.87
2017-09-13T07:09:03.446Z,94213.30
2017-09-13T07:11:31.314Z,94211.61
2017-09-13T07:13:59.019Z,94211.50
2017-09-13T07:16:26.790Z,94213.12
2017-09-13T07:18:54.520Z,94210.09
2017-09-13T07:21:22.260Z,94210.33
2017-09-13T07:23:50.002Z,94207.20
2017-09-13T07:26:17.777Z,94209.58
2017-09-13T07:28:45.534Z,94201.92
2017-09-13T07:31:13.318Z,94200.67
2017-09-13T07:33:41.140Z,94198.75
2017-09-13T07:36:08.905Z,94197.80
2017-09-13T07:38:36.649Z,94191.22
2017-09-13T07:41:04.428Z,94188.44
2017-09-13T07:43:32.142Z,94182.30
2017-09-13T07:45:59.907Z,94182.01
2017-09-13T07:48:27.636Z,94179.24
2017-09-13T07:50:55.479Z,94173.89
2017-09-13T07:53:23.204Z,94171.44
2017-09-13T07:58:24.733Z,94155.03
2017-09-13T08:00:52.453Z,94161.36
2017-09-13T08:03:20.165Z,94161.84
2017-09-13T08:05:47.951Z,94152.98
2017-09-13T08:08:15.755Z,94148.58
2017-09-13T08:10:43.545Z,94144.12
2017-09-13T08:13:11.369Z,94139.87
2017-09-13T08:15:39.101Z,94130.80
2017-09-13T08:18:06.891Z,94131.58
2017-09-13T08:20:34.646Z,94132.14
2017-09-13T08:23:02.516Z,94125.88
2017-09-13T08:25:30.297Z,94130.02
2017-09-13T08:27:58.005Z,94128.85
2017-09-13T08:30:25.774Z,94129.22
2017-09-13T08:32:53.570Z,94124.66
2017-09-13T08:35:21.356Z,94124.58
2017-09-13T08:37:49.177Z,94129.46
2017-09-13T08:40:16.947Z,94128.76
2017-09-13T08:42:44.642Z,94121.77
2017-09-13T08:45:12.388Z,94130.36
2017-09-13T08:47:40.295Z,94129.03
2017-09-13T08:50:08.102Z,94135.56
2017-09-13T08:52:35.858Z,94123.08
2017-09-13T08:55:03.706Z,94124.96
2017-09-13T08:57:31.627Z,94121.78
2017-09-13T08:59:59.587Z,94119.33
2017-09-13T09:02:27.390Z,94111.64
2017-09-13T09:04:55.205Z,94101.59
2017-09-13T09:07:22.995Z,94105.12
2017-09-13T09:09:51.831Z,94108.73
2017-09-13T09:12:20.579Z,94105.73
2017-09-13T09:14:48.324Z,94096.05
2017-09-13T09:17:16.071Z,94086.31
2017-09-13T09:19:44.193Z,94080.50
2017-09-13T09:22:12.146Z,94076.28
2017-09-13T09:24:40.266Z,94071.43
2017-09-13T09:27:08.238Z,94077.00
2017-09-13T09:29:35.994Z,94066.56
2017-09-13T09:32:03.686Z,94067.34
2017-09-13T09:34:31.472Z,94068.52
2017-09-13T09:36:59.205Z,94074.45
2017-09-13T09:39:27.103Z,94067.09
2017-09-13T09:41:54.895Z,94057.89
2017-09-13T09:44:22.641Z,94062.38
2017-09-13T09:46:50.309Z,94061.66
2017-09-13T09:49:18.066Z,94046.20
2017-09-13T09:51:45.831Z,94038.47
2017-09-13T09:54:13.793Z,94032.03
2017-09-13T09:56:41.633Z,94034.66
2017-09-13T09:59:09.383Z,94023.84
2017-09-13T10:01:37.256Z,94016.50
2017-09-13T10:04:05.023Z,94016.63
2017-09-13T10:06:32.889Z,94012.30
2017-09-13T10:09:00.635Z,94003.94
2017-09-13T10:11:28.381Z,93999.69
2017-09-13T10:13:56.178Z,94004.67
2017-09-13T10:16:23.970Z,93998.88
2017-09-13T10:18:51.736Z,93992.25
2017-09-13T10:21:19.525Z,93999.73
2017-09-13T10:23:47.242Z,93995.90
2017-09-13T10:26:15.066Z,93989.34
2017-09-13T10:28:42.833Z,93994.02
2017-09-13T10:31:10.646Z,93990.55
2017-09-13T10:33:38.397Z,93979.96
2017-09-13T10:36:06.212Z,93980.66
2017-09-13T10:38:33.963Z,93979.74
2017-09-13T10:41:02.856Z,93977.58
2017-09-13T10:43:31.144Z,93979.37
2017-09-13T10:45:58.975Z,93971.09
2017-09-13T10:48:26.865Z,93977.48
2017-09-13T10:50:54.952Z,93973.02
2017-09-13T10:53:22.801Z,93963.84
2017-09-13T10:55:51.608Z,93964.12
2017-09-13T10:58:19.402Z,93967.69
2017-09-13T11:00:47.241Z,93954.37
2017-09-13T11:03:15.091Z,93954.00
2017-09-13T11:05:42.941Z,93956.43
2017-09-13T11:08:10.720Z,93955.94
2017-09-13T11:10:38.572Z,93943.03
2017-09-13T11:13:06.322Z,93948.06
2017-09-13T11:15:34.788Z,93951.56
2017-09-13T11:18:02.569Z,93945.30
2017-09-13T11:20:31.141Z,93938.81
2017-09-13T11:22:59.697Z,93958.13
2017-09-13T11:25:28.201Z,93943.24
2017-09-13T11:27:56.001Z,93932.19
2017-09-13T11:30:23.750Z,93934.77
2017-09-13T11:32:53.303Z,93945.76
2017-09-13T11:35:21.788Z,93935.70
2017-09-13T11:37:49.754Z,93931.75
2017-09-13T11:40:17.547Z,93916.27
2017-09-13T11:42:45.316Z,93915.17
2017-09-13T11:45:13.094Z,93918.55
2017-09-13T11:47:49.028Z,93922.07
2017-09-13T11:50:16.815Z,93925.05
2017-09-13T11:52:44.611Z,93927.69
2017-09-13T11:55:12.687Z,93929.08
2017-09-13T11:57:40.494Z,93926.96
2017-09-13T12:00:08.225Z,93925.55
2017-09-13T12:02:36.024Z,93914.75
2017-09-13T12:05:04.136Z,93914.05
2017-09-13T12:07:31.949Z,93916.39
2017-09-13T12:09:59.760Z,93905.01
2017-09-13T12:12:27.547Z,93897.80
2017-09-13T12:14:56.326Z,93909.63
2017-09-13T12:17:24.191Z,93908.56
2017-09-13T12:19:51.965Z,93901.91
2017-09-13T12:22:19.742Z,93906.34
2017-09-13T12:24:48.517Z,93904.29
2017-09-13T12:27:16.824Z,93908.14
2017-09-13T12:29:44.681Z,93903.97
2017-09-13T12:32:12.430Z,93896.31
2017-09-13T12:34:40.699Z,93887.69
2017-09-13T12:37:08.853Z,93887.02
2017-09-13T12:39:36.777Z,93880.69
2017-09-13T12:42:04.615Z,93876.47
2017-09-13T12:44:32.536Z,93877.75
2017-09-13T12:47:00.264Z,93876.91
2017-09-13T12:49:28.656Z,93875.07
2017-09-13T12:51:56.488Z,93878.17
2017-09-13T12:54:24.332Z,93867.20
2017-09-13T12:56:53.184Z,93869.11
2017-09-13T12:59:21.498Z,93859.87
2017-09-13T13:01:49.305Z,93865.53
2017-09-13T13:04:17.599Z,93857.15
2017-09-13T13:06:45.397Z,93859.91
2017-09-13T13:09:13.435Z,93852.36
2017-09-13T13:11:42.204Z,93847.26
2017-09-13T13:14:12.099Z,93839.39
2017-09-13T13:16:41.083Z,93835.78
2017-09-13T13:19:10.103Z,93838.22
2017-09-13T13:21:37.883Z,93830.98
2017-09-13T13:24:06.198Z,93843.33
2017-09-13T13:26:34.572Z,93835.00
2017-09-13T13:29:02.390Z,93827.11
2017-09-13T13:31:30.116Z,93823.49
2017-09-13T13:33:58.203Z,93833.94
2017-09-13T13:36:26.707Z,93833.47
2017-09-13T13:38:54.481Z,93824.28
2017-09-13T13:41:22.727Z,93816.17
2017-09-13T13:43:51.659Z,93816.19
2017-09-13T13:46:19.465Z,93817.85
2017-09-13T13:48:47.218Z,93817.79
2017-09-13T13:51:14.973Z,93810.75
2017-09-13T13:53:42.865Z,93821.34
2017-09-13T13:56:10.681Z,93814.39
2017-09-13T13:58:39.331Z,93797.72
2017-09-13T14:01:07.764Z,93800.93
2017-09-13T14:03:35.973Z,93808.38
2017-09-13T14:06:03.752Z,93809.39
2017-09-13T14:08:32.706Z,93804.96
2017-09-13T14:11:01.275Z,93800.67
2017-09-13T14:13:29.116Z,93798.16
2017-09-13T14:15:57.090Z,93794.87
2017-09-13T14:18:24.909Z,93801.80
2017-09-13T14:20:52.988Z,93800.17
2017-09-13T14:23:20.862Z,93795.33
2017-09-13T14:25:48.678Z,93803.64
2017-09-13T14:28:17.028Z,93791.22
2017-09-13T14:30:44.846Z,93790.38
2017-09-13T14:33:12.593Z,93791.47
2017-09-13T14:35:40.599Z,93792.14
2017-09-13T14:38:09.113Z,93796.64
2017-09-13T14:40:36.951Z,93805.11
2017-09-13T14:43:05.583Z,93792.75
2017-09-13T14:45:33.887Z,93798.00
2017-09-13T14:48:01.784Z,93801.59
2017-09-13T14:50:31.206Z,93810.98
2017-09-13T14:52:59.130Z,93833.67
2017-09-13T14:55:26.973Z,93826.34
2017-09-13T14:57:54.693Z,93827.66
2017-09-13T15:00:23.232Z,93829.09
2017-09-13T15:02:50.968Z,93829.66
2017-09-13T15:05:19.149Z,93831.06
2017-09-13T15:07:46.926Z,93835.93
2017-09-13T15:10:14.646Z,93834.91
2017-09-13T15:12:42.446Z,93834.92
2017-09-13T15:15:10.326Z,93838.78
2017-09-13T15:17:38.346Z,93842.05
2017-09-13T15:20:06.275Z,93841.66
2017-09-13T15:22:34.327Z,93833.53
2017-09-13T15:25:02.417Z,93841.81
2017-09-13T15:27:30.263Z,93836.42
2017-09-13T15:29:58.757Z,93832.55
2017-09-13T15:32:26.556Z,93849.84
2017-09-13T15:34:54.422Z,93851.33
2017-09-13T15:37:22.472Z,93858.42
2017-09-13T15:39:50.222Z,93865.64
2017-09-13T15:42:17.964Z,93864.70
2017-09-13T15:44:46.943Z,93869.95
2017-09-13T15:47:14.834Z,93874.02
2017-09-13T15:49:42.620Z,93885.09
2017-09-13T15:52:10.477Z,93881.56
2017-09-13T15:54:38.235Z,93886.15
2017-09-13T15:57:06.103Z,93885.51
2017-09-13T15:59:33.912Z,93884.73
2017-09-13T16:02:01.718Z,93883.32
2017-09-13T16:04:30.335Z,93887.93
2017-09-13T16:06:58.112Z,93873.61
2017-09-13T16:09:26.742Z,93876.23
2017-09-13T16:11:54.529Z,93881.09
2017-09-13T16:14:23.169Z,93880.83
2017-09-13T16:16:52.882Z,93878.20
2017-09-13T16:19:20.603Z,93887.00
2017-09-13T16:21:48.687Z,93888.97
2017-09-13T16:24:16.417Z,93896.08
2017-09-13T16:26:44.545Z,93901.20
2017-09-13T16:29:12.367Z,93894.68
2017-09-13T16:31:40.123Z,93894.16
2017-09-13T16:34:07.830Z,93893.67
2017-09-13T16:36:35.623Z,93893.14
2017-09-13T16:39:03.478Z,93894.85
2017-09-13T16:41:31.298Z,93895.51
2017-09-13T16:43:59.134Z,93891.30
2017-09-13T16:46:26.877Z,93894.98
2017-09-13T16:48:54.720Z,93887.52
2017-09-13T16:51:22.430Z,93891.45
2017-09-13T16:53:50.124Z,93883.18
2017-09-13T16:56:17.972Z,93890.66
2017-09-13T16:58:45.846Z,93889.73
2017-09-13T17:01:13.622Z,93893.14
2017-09-13T17:03:41.422Z,93885.56
2017-09-13T17:06:09.386Z,93889.89
2017-09-13T17:08:37.762Z,93891.98
2017-09-13T17:11:05.603Z,93890.64
2017-09-13T17:13:33.409Z,93903.09
2017-09-13T17:16:02.419Z,93904.13
2017-09-13T17:18:30.234Z,93917.73
2017-09-13T17:20:58.027Z,93915.89
2017-09-13T17:23:25.758Z,93920.08
2017-09-13T17:25:53.533Z,93922.83
2017-09-13T17:28:21.504Z,93920.81
2017-09-13T17:30:50.502Z,93916.21
2017-09-13T17:33:18.334Z,93920.03
2017-09-13T17:35:46.214Z,93911.39
2017-09-13T17:38:14.017Z,93921.19
2017-09-13T17:40:41.758Z,93924.42
2017-09-13T17:43:09.626Z,93924.84
2017-09-13T17:45:37.712Z,93927.46
2017-09-13T17:48:06.258Z,93929.16
2017-09-13T17:50:34.281Z,93934.38
2017-09-13T17:53:02.639Z,93943.51
2017-09-13T17:55:30.435Z,93934.45
2017-09-13T17:57:58.327Z,93935.39
2017-09-13T18:00:26.168Z,93929.43
2017-09-13T18:02:54.118Z,93922.47
2017-09-13T18:05:22.173Z,93927.66
2017-09-13T18:07:50.481Z,93928.33
2017-09-13T18:10:18.281Z,93918.48
2017-09-13T18:12:46.087Z,93920.69
2017-09-13T18:15:13.940Z,93934.09
2017-09-13T18:17:41.793Z,93939.45
2017-09-13T18:20:09.639Z,93934.69
2017-09-13T18:22:37.471Z,93935.88
2017-09-13T18:25:05.252Z,93936.70
2017-09-13T18:27:33.042Z,93932.00
2017-09-13T18:30:01.068Z,93934.48
2017-09-13T18:32:28.829Z,93944.26
2017-09-13T18:34:56.626Z,93939.17
2017-09-13T18:37:24.449Z,93942.02
2017-09-13T18:39:52.193Z,93937.23
2017-09-13T18:42:20.479Z,93939.11
2017-09-13T18:44:48.311Z,93935.59
2017-09-13T18:47:16.956Z,93935.46
2017-09-13T18:49:44.782Z,93933.70
2017-09-13T18:52:13.043Z,93931.03
2017-09-13T18:54:40.860Z,93924.23
2017-09-13T18:57:08.874Z,93915.21
2017-09-13T18:59:36.745Z,93907.03
2017-09-13T19:02:06.627Z,93913.63
2017-09-13T19:04:36.067Z,93907.19
2017-09-13T19:07:03.890Z,93904.24
2017-09-13T19:09:32.683Z,93915.45
2017-09-13T19:12:00.533Z,93911.78
2017-09-13T19:14:28.296Z,93905.13
2017-09-13T19:16:56.150Z,93914.23
2017-09-13T19:19:23.977Z,93905.73
2017-09-13T19:21:51.691Z,93906.77
2017-09-13T19:24:19.672Z,93913.02
2017-09-13T19:26:47.431Z,93919.33
2017-09-13T19:29:15.174Z,93916.81
2017-09-13T19:31:43.327Z,93908.31
2017-09-13T19:34:11.123Z,93921.55
2017-09-13T19:36:38.964Z,93918.72
2017-09-13T19:39:10.317Z,93907.66
2017-09-13T19:41:39.271Z,93921.88
2017-09-13T19:44:07.065Z,93931.88
2017-09-13T19:46:36.022Z,93911.99
2017-09-13T19:49:04.876Z,93929.75
2017-09-13T19:51:32.896Z,93908.20
2017-09-13T19:54:00.680Z,93938.58
2017-09-13T19:56:28.405Z,93926.56
2017-09-13T19:58:56.189Z,93920.48
2017-09-13T20:01:24.734Z,93923.48
2017-09-13T20:03:52.441Z,93907.91
2017-09-13T20:06:20.580Z,93924.17
2017-09-13T20:08:49.493Z,93918.91
2017-09-13T20:11:18.577Z,93918.68
2017-09-13T20:13:47.126Z,93914.33
2017-09-13T20:16:14.917Z,93912.00
2017-09-13T20:18:43.384Z,93925.36
2017-09-13T20:21:11.155Z,93923.19
2017-09-13T20:23:38.858Z,93924.22
2017-09-13T20:26:06.600Z,93927.47
2017-09-13T20:28:34.334Z,93940.63
2017-09-13T20:31:02.043Z,93941.65
2017-09-13T20:33:29.796Z,93939.27
2017-09-13T20:35:58.064Z,93932.52
2017-09-13T20:38:27.021Z,93940.16
2017-09-13T20:40:55.752Z,93941.18
2017-09-13T20:43:23.544Z,93941.69
2017-09-13T20:45:52.188Z,93945.25
2017-09-13T20:48:20.360Z,93951.08
2017-09-13T20:50:49.239Z,93950.61
2017-09-13T20:53:17.059Z,93955.51
2017-09-13T20:55:44.944Z,93949.92
2017-09-13T20:58:14.247Z,93954.18
2017-09-13T21:00:42.022Z,93947.41
2017-09-13T21:03:09.785Z,93949.27
2017-09-13T21:05:38.148Z,93950.55
2017-09-13T21:08:09.858Z,93942.80
2017-09-13T21:10:39.302Z,93945.92
2017-09-13T21:13:07.744Z,93941.22
2017-09-13T21:15:36.865Z,93941.31
2017-09-13T21:18:05.719Z,93939.50
2017-09-13T21:20:33.485Z,93935.75
2017-09-13T21:23:01.393Z,93941.98
2017-09-13T21:25:29.170Z,93941.63
2017-09-13T21:27:57.575Z,93945.29
2017-09-13T21:30:25.375Z,93941.17
2017-09-13T21:32:53.079Z,93941.03
2017-09-13T21:35:21.740Z,93944.16
2017-09-13T21:37:50.140Z,93945.23
2017-09-13T21:40:17.850Z,93936.00
2017-09-13T21:42:45.638Z,93939.73
2017-09-13T21:45:13.423Z,93942.34
2017-09-13T21:47:41.763Z,93935.50
2017-09-13T21:50:09.485Z,93935.25
2017-09-13T21:52:37.321Z,93935.77
2017-09-13T21:55:05.043Z,93942.95
2017-09-13T21:57:32.882Z,93934.46
2017-09-13T22:00:02.239Z,93941.76
2017-09-13T22:02:30.019Z,93942.81
2017-09-13T22:04:57.894Z,93933.36
2017-09-13T22:07:26.067Z,93933.92
2017-09-13T22:09:53.835Z,93924.31
2017-09-13T22:12:22.632Z,93924.56
2017-09-13T22:14:50.703Z,93920.41
2017-09-13T22:17:19.145Z,93918.55
2017-09-13T22:19:46.921Z,93925.50
2017-09-13T22:22:14.891Z,93926.75
2017-09-13T22:24:42.997Z,93913.91
2017-09-13T22:27:11.941Z,93918.83
2017-09-13T22:29:40.431Z,93915.84
2017-09-13T22:32:08.351Z,93922.00
2017-09-13T22:34:36.575Z,93925.59
2017-09-13T22:37:04.304Z,93921.12
2017-09-13T22:39:32.072Z,93915.41
2017-09-13T22:41:59.781Z,93913.77
2017-09-13T22:44:28.645Z,93912.64
2017-09-13T22:46:56.384Z,93909.25
2017-09-13T22:49:25.776Z,93914.41
2017-09-13T22:51:56.511Z,93912.38
2017-09-13T22:54:24.367Z,93907.22
2017-09-13T22:56:53.438Z,93907.00
2017-09-13T22:59:21.507Z,93910.00
2017-09-13T23:01:50.841Z,93912.36
2017-09-13T23:04:18.520Z,93910.67
2017-09-13T23:06:46.264Z,93915.31
2017-09-13T23:09:13.981Z,93912.36
2017-09-13T23:11:41.860Z,93898.70
2017-09-13T23:14:11.248Z,93894.59
2017-09-13T23:16:39.087Z,93898.13
2017-09-13T23:19:08.099Z,93893.34
2017-09-13T23:21:36.632Z,93898.58
2017-09-13T23:24:05.590Z,93901.81
2017-09-13T23:26:35.121Z,93901.01
2017-09-13T23:29:03.057Z,93897.80
2017-09-13T23:31:32.865Z,93899.16
2017-09-13T23:34:00.597Z,93891.26
2017-09-13T23:36:28.377Z,93890.28
2017-09-13T23:38:57.200Z,93892.53
2017-09-13T23:41:25.035Z,93902.15
2017-09-13T23:43:53.421Z,93881.86
2017-09-13T23:46:21.239Z,93889.09
2017-09-13T23:48:48.973Z,93885.63
2017-09-13T23:51:16.716Z,93893.52
2017-09-13T23:53:46.154Z,93890.31
2017-09-13T23:56:14.922Z,93878.47
2017-09-13T23:58:42.633Z,93884.80
